Time;durP1;ratioP1;P1;durP2;ratioP2;P2;SDS_P1;SDS_P2;PMS_P1;PMS_P2;Temp;Humidity;BMP_temperature;BMP_pressure;BME280_temperature;BME280_humidity;BME280_pressure;Samples;Min_cycle;Max_cycle;Signal;HPM_P1;HPM_P2
2022/07/27 00:02:03;;;;;;;8.10;5.15;;;;;;;17.81;89.86;100334.91;1752293;80;27939;-76
2022/07/27 00:04:31;;;;;;;10.45;4.95;;;;;;;17.82;90.17;100348.73;1758107;80;25952;-77
2022/07/27 00:06:59;;;;;;;11.35;5.00;;;;;;;17.82;90.09;100343.31;1747349;80;25735;-76
2022/07/27 00:09:28;;;;;;;10.53;4.75;;;;;;;17.81;90.16;100348.45;1725184;81;27133;-76
2022/07/27 00:11:54;;;;;;;10.13;4.30;;;;;;;17.80;90.57;100351.38;1707009;81;25817;-76
2022/07/27 00:14:20;;;;;;;7.25;3.85;;;;;;;17.78;90.16;100353.52;1726129;81;27527;-77
2022/07/27 00:16:50;;;;;;;7.05;3.58;;;;;;;17.78;90.39;100360.28;1721535;83;26120;-76
2022/07/27 00:19:19;;;;;;;7.83;3.62;;;;;;;17.77;90.54;100360.81;1721853;81;25883;-77
2022/07/27 00:21:46;;;;;;;13.13;3.98;;;;;;;17.73;90.27;100359.13;1714613;81;26584;-76
2022/07/27 00:24:12;;;;;;;9.63;3.20;;;;;;;17.70;89.89;100358.78;1716773;82;25776;-76
2022/07/27 00:26:38;;;;;;;5.17;3.52;;;;;;;17.67;89.76;100363.31;1671266;83;28059;-76
2022/07/27 00:29:05;;;;;;;8.05;3.67;;;;;;;17.66;89.83;100364.39;1725419;81;25934;-77
2022/07/27 00:31:31;;;;;;;6.20;3.05;;;;;;;17.62;89.55;100362.67;1717465;81;25956;-77
2022/07/27 00:33:58;;;;;;;5.95;3.10;;;;;;;17.58;89.40;100359.31;1712435;81;25876;-76
2022/07/27 00:36:27;;;;;;;3.83;3.02;;;;;;;17.56;89.38;100366.86;1729913;82;25971;-77
2022/07/27 00:38:54;;;;;;;3.80;2.83;;;;;;;17.56;89.43;100373.63;1714906;81;27084;-77
2022/07/27 00:41:25;;;;;;;5.72;3.05;;;;;;;17.52;89.18;100382.77;1723145;81;26370;-77
2022/07/27 00:43:59;;;;;;;3.62;3.00;;;;;;;17.50;89.09;100382.19;1722178;82;25782;-77
2022/07/27 00:46:31;;;;;;;6.42;3.50;;;;;;;17.47;89.07;100389.38;1699680;82;25778;-76
2022/07/27 00:48:59;;;;;;;4.55;2.77;;;;;;;17.45;89.04;100394.22;1700015;83;26514;-77
2022/07/27 00:51:30;;;;;;;3.25;2.37;;;;;;;17.43;88.83;100392.27;1714088;81;27517;-76
2022/07/27 00:53:56;;;;;;;4.27;2.47;;;;;;;17.40;88.65;100391.94;1693440;83;25763;-77
2022/07/27 00:56:25;;;;;;;5.97;2.22;;;;;;;17.38;88.48;100391.34;1687718;83;26529;-77
2022/07/27 00:58:56;;;;;;;4.87;2.17;;;;;;;17.36;88.36;100388.89;1721531;81;25814;-77
2022/07/27 01:01:26;;;;;;;3.95;2.27;;;;;;;17.35;88.04;100387.75;1707917;81;26538;-77
2022/07/27 01:03:55;;;;;;;6.60;2.13;;;;;;;17.28;87.85;100386.51;1665037;84;27193;-77
2022/07/27 01:06:24;;;;;;;6.37;1.95;;;;;;;17.24;87.41;100394.81;1688064;84;25867;-76
2022/07/27 01:08:51;;;;;;;5.92;2.62;;;;;;;17.21;87.05;100386.34;1686101;84;26438;-78
2022/07/27 01:11:20;;;;;;;3.25;1.62;;;;;;;17.17;86.72;100384.62;1683267;83;26552;-78
2022/07/27 01:13:46;;;;;;;6.12;1.67;;;;;;;17.15;86.72;100388.64;1684345;83;26385;-76
2022/07/27 01:16:16;;;;;;;3.25;1.95;;;;;;;17.13;86.49;100392.91;1687680;84;29130;-77
2022/07/27 01:18:43;;;;;;;3.98;1.75;;;;;;;17.13;86.28;100398.33;1716990;81;26112;-75
2022/07/27 01:21:09;;;;;;;6.25;2.10;;;;;;;17.14;85.96;100403.22;1698449;82;25856;-77
2022/07/27 01:23:35;;;;;;;6.12;1.70;;;;;;;17.10;85.73;100404.23;1706132;82;26430;-76
2022/07/27 01:26:09;;;;;;;2.70;1.72;;;;;;;17.08;85.68;100403.64;1752243;80;25887;-76
2022/07/27 01:28:38;;;;;;;5.10;1.50;;;;;;;17.08;85.34;100398.22;1749798;80;27470;-76
2022/07/27 01:31:07;;;;;;;3.47;1.45;;;;;;;17.08;85.18;100405.52;1750584;80;25809;-77
2022/07/27 01:33:36;;;;;;;1.77;1.30;;;;;;;17.08;85.10;100399.58;1761797;80;25340;-77
2022/07/27 01:36:06;;;;;;;3.45;1.50;;;;;;;17.05;84.96;100398.68;1757965;80;25901;-76
2022/07/27 01:38:42;;;;;;;7.67;1.77;;;;;;;17.04;84.95;100399.75;1688421;81;25810;-77
2022/07/27 01:41:03;;;;;;;3.50;1.60;;;;;;;17.04;84.96;100396.22;1705039;81;27858;-76
2022/07/27 01:43:29;;;;;;;3.30;1.60;;;;;;;17.04;84.78;100394.86;1727800;81;25915;-77
2022/07/27 01:45:55;;;;;;;4.12;1.90;;;;;;;17.06;84.72;100397.63;1695354;82;25896;-76
2022/07/27 01:48:24;;;;;;;3.22;1.62;;;;;;;17.09;84.71;100404.44;1688433;82;25861;-77
2022/07/27 01:50:51;;;;;;;3.20;1.40;;;;;;;17.08;84.41;100403.64;1712255;81;25849;-77
2022/07/27 01:53:21;;;;;;;2.65;1.40;;;;;;;17.09;84.37;100408.50;1700400;82;29289;-76
2022/07/27 01:55:52;;;;;;;3.07;1.70;;;;;;;17.10;84.34;100411.52;1729784;80;25996;-76
2022/07/27 01:58:20;;;;;;;2.65;1.15;;;;;;;17.11;84.36;100413.97;1747906;81;26497;-75
2022/07/27 02:00:53;;;;;;;5.40;1.50;;;;;;;17.13;84.33;100421.88;1728749;80;25402;-75
2022/07/27 02:03:20;;;;;;;4.17;1.70;;;;;;;17.13;84.11;100430.00;1746649;80;26482;-75
2022/07/27 02:05:49;;;;;;;4.72;1.60;;;;;;;17.12;84.14;100434.59;1747326;80;27447;-77
2022/07/27 02:08:18;;;;;;;2.65;1.60;;;;;;;17.11;84.21;100435.62;1747299;80;25818;-76
2022/07/27 02:13:31;;;;;;;1.77;1.50;;;;;;;17.07;84.13;100445.27;1760433;80;26577;-76
2022/07/27 02:16:00;;;;;;;4.78;1.90;;;;;;;17.05;84.30;100451.97;1758720;80;26456;-76
2022/07/27 02:18:28;;;;;;;4.10;1.67;;;;;;;17.03;84.33;100447.32;1749386;80;27462;-76
2022/07/27 02:20:56;;;;;;;1.77;1.15;;;;;;;17.00;84.24;100447.80;1694402;81;26708;-76
2022/07/27 02:23:22;;;;;;;6.03;1.70;;;;;;;16.98;84.14;100453.98;1728969;81;25724;-76
2022/07/27 02:25:49;;;;;;;3.02;1.60;;;;;;;16.95;84.10;100454.73;1701634;82;25834;-78
2022/07/27 02:28:15;;;;;;;2.62;1.07;;;;;;;16.93;83.79;100458.73;1700196;82;25989;-77
2022/07/27 02:30:43;;;;;;;5.28;1.50;;;;;;;16.89;83.71;100450.78;1718244;81;28441;-76
2022/07/27 02:33:09;;;;;;;3.58;1.25;;;;;;;16.89;83.68;100458.89;1729400;81;25949;-76
2022/07/27 02:35:36;;;;;;;4.97;1.20;;;;;;;16.88;83.48;100463.99;1726293;82;26402;-76
2022/07/27 02:38:02;;;;;;;5.65;1.80;;;;;;;16.86;83.40;100456.64;1706297;83;26709;-76
2022/07/27 02:40:28;;;;;;;3.50;1.30;;;;;;;16.86;83.34;100458.83;1707747;81;25848;-76
2022/07/27 02:42:54;;;;;;;2.22;1.32;;;;;;;16.87;83.22;100455.05;1717476;82;27463;-76
2022/07/27 02:45:21;;;;;;;6.03;1.32;;;;;;;16.85;82.89;100459.87;1683844;83;26009;-76
2022/07/27 02:47:47;;;;;;;4.30;1.30;;;;;;;16.83;82.73;100458.44;1709930;81;25749;-77
2022/07/27 02:50:13;;;;;;;2.72;1.25;;;;;;;16.84;82.78;100458.75;1695270;83;26589;-77
2022/07/27 02:52:40;;;;;;;3.72;1.67;;;;;;;16.81;82.61;100461.39;1691981;83;25967;-78
2022/07/27 02:55:08;;;;;;;4.15;1.10;;;;;;;16.76;82.48;100466.69;1714665;82;27465;-77
2022/07/27 02:57:39;;;;;;;3.17;1.12;;;;;;;16.74;82.55;100472.02;1686053;83;26019;-78
2022/07/27 03:00:06;;;;;;;4.72;1.32;;;;;;;16.72;82.52;100474.13;1714473;81;25778;-77
2022/07/27 03:02:32;;;;;;;2.22;1.20;;;;;;;16.72;82.49;100480.34;1722403;81;26564;-76
2022/07/27 03:05:02;;;;;;;4.53;1.30;;;;;;;16.68;82.40;100476.45;1689927;83;25657;-77
2022/07/27 03:07:30;;;;;;;6.83;1.22;;;;;;;16.67;82.38;100473.46;1715721;83;27544;-77
2022/07/27 03:09:56;;;;;;;2.40;1.30;;;;;;;16.67;82.46;100485.63;1687549;83;25966;-77
2022/07/27 03:12:22;;;;;;;3.85;1.15;;;;;;;16.65;82.27;100473.39;1718380;81;25833;-76
2022/07/27 03:14:49;;;;;;;5.80;1.45;;;;;;;16.60;82.21;100482.19;1699435;82;26562;-77
2022/07/27 03:17:15;;;;;;;4.03;1.00;;;;;;;16.58;82.13;100481.59;1714904;81;26015;-76
2022/07/27 03:19:41;;;;;;;4.87;2.40;;;;;;;16.57;82.18;100490.73;1727709;81;27454;-77
2022/07/27 03:22:08;;;;;;;3.05;1.02;;;;;;;16.55;82.03;100496.91;1714868;81;26488;-75
2022/07/27 03:24:35;;;;;;;6.70;1.20;;;;;;;16.54;82.04;100499.33;1731777;81;25938;-79
2022/07/27 03:27:02;;;;;;;2.92;1.02;;;;;;;16.55;81.98;100492.84;1683353;83;25907;-76
2022/07/27 03:29:28;;;;;;;6.28;1.12;;;;;;;16.57;81.71;100500.75;1697261;82;25927;-75
2022/07/27 03:31:57;;;;;;;4.78;1.27;;;;;;;16.56;81.50;100503.14;1758811;79;28303;-76
2022/07/27 03:34:26;;;;;;;5.37;1.05;;;;;;;16.57;81.37;100508.87;1725485;81;25858;-77
2022/07/27 03:36:54;;;;;;;6.55;1.12;;;;;;;16.54;81.21;100499.84;1708056;81;25738;-76
2022/07/27 03:39:20;;;;;;;7.15;1.50;;;;;;;16.55;81.30;100505.02;1727831;82;26542;-76
2022/07/27 03:41:47;;;;;;;4.75;1.20;;;;;;;16.55;81.00;100511.78;1687434;84;26088;-76
2022/07/27 03:44:15;;;;;;;3.70;1.40;;;;;;;16.54;80.92;100526.89;1693676;82;27611;-76
2022/07/27 03:46:46;;;;;;;6.62;1.20;;;;;;;16.56;80.87;100519.38;1700658;83;25794;-77
2022/07/27 03:49:13;;;;;;;2.20;1.03;;;;;;;16.55;80.76;100517.73;1701678;82;25784;-77
2022/07/27 03:51:40;;;;;;;4.62;1.20;;;;;;;16.57;80.81;100522.39;1709245;82;26681;-76
2022/07/27 03:54:09;;;;;;;5.53;2.02;;;;;;;16.57;80.63;100529.95;1698315;82;25815;-76
2022/07/27 03:56:35;;;;;;;6.95;1.17;;;;;;;16.57;80.30;100524.54;1694899;83;27603;-76
2022/07/27 03:59:05;;;;;;;5.05;1.02;;;;;;;16.58;80.27;100522.67;1695690;83;25776;-76
2022/07/27 04:01:36;;;;;;;2.93;1.00;;;;;;;16.55;79.94;100524.50;1700340;82;26046;-76
2022/07/27 04:04:04;;;;;;;4.17;0.90;;;;;;;16.55;79.94;100524.50;1725737;81;26664;-76
2022/07/27 04:06:30;;;;;;;4.15;1.27;;;;;;;16.57;80.29;100528.59;1702374;83;26047;-78
2022/07/27 04:09:00;;;;;;;5.42;1.22;;;;;;;16.60;80.28;100534.08;1685100;83;27520;-76
2022/07/27 04:11:27;;;;;;;4.13;1.20;;;;;;;16.61;80.07;100533.05;1718431;81;25926;-76
2022/07/27 04:13:53;;;;;;;3.22;1.00;;;;;;;16.62;80.21;100531.45;1721627;81;25811;-76
2022/07/27 04:16:23;;;;;;;3.43;1.00;;;;;;;16.65;80.20;100528.31;1716986;81;25904;-77
2022/07/27 04:18:52;;;;;;;3.77;1.77;;;;;;;16.69;80.00;100538.13;1702434;82;25880;-76
2022/07/27 04:21:18;;;;;;;6.17;1.30;;;;;;;16.71;80.00;100538.73;1725655;81;27465;-76
2022/07/27 04:23:44;;;;;;;2.92;1.05;;;;;;;16.72;79.68;100542.55;1720828;81;25890;-76
2022/07/27 04:26:12;;;;;;;2.35;0.95;;;;;;;16.72;79.79;100539.84;1721113;81;25815;-76
2022/07/27 04:28:38;;;;;;;1.55;0.90;;;;;;;16.74;79.80;100536.94;1711744;81;25821;-78
2022/07/27 04:31:05;;;;;;;5.70;1.10;;;;;;;16.77;80.04;100542.70;1721062;81;26719;-76
2022/07/27 04:33:33;;;;;;;5.97;0.95;;;;;;;16.84;80.15;100542.09;1710307;82;27016;-76
2022/07/27 04:36:00;;;;;;;2.87;1.30;;;;;;;16.90;79.82;100543.88;1677603;83;25948;-76
2022/07/27 04:38:26;;;;;;;8.13;1.10;;;;;;;16.91;79.66;100548.22;1697255;83;25821;-75
2022/07/27 04:40:54;;;;;;;3.67;1.10;;;;;;;16.91;79.51;100549.58;1725534;81;25833;-74
2022/07/27 04:43:24;;;;;;;3.47;1.30;;;;;;;16.94;79.69;100557.25;1702726;82;26096;-75
2022/07/27 04:45:49;;;;;;;4.03;1.15;;;;;;;16.95;79.52;100556.73;1714559;81;28345;-76
2022/07/27 04:48:23;;;;;;;5.80;1.15;;;;;;;16.96;79.52;100562.42;1723781;82;26046;-75
2022/07/27 04:50:51;;;;;;;4.25;0.78;;;;;;;16.98;79.65;100572.48;1688448;83;25815;-76
2022/07/27 04:53:21;;;;;;;3.22;1.15;;;;;;;16.98;79.83;100559.80;1684627;83;26015;-79
2022/07/27 04:55:47;;;;;;;6.87;1.40;;;;;;;16.97;79.38;100554.62;1687445;83;25940;-77
2022/07/27 04:58:16;;;;;;;3.70;1.10;;;;;;;16.99;79.50;100561.98;1684039;83;26753;-76
2022/07/27 05:00:44;;;;;;;5.40;1.40;;;;;;;16.98;79.19;100561.66;1718644;82;25889;-78
2022/07/27 05:03:11;;;;;;;2.60;0.85;;;;;;;16.98;79.42;100561.66;1705240;81;26696;-77
2022/07/27 05:05:41;;;;;;;3.80;1.00;;;;;;;17.02;79.41;100557.47;1695267;83;25895;-77
2022/07/27 05:08:07;;;;;;;3.40;0.98;;;;;;;17.05;79.61;100561.58;1704206;82;25913;-77
2022/07/27 05:10:34;;;;;;;5.70;1.10;;;;;;;17.12;79.61;100560.96;1699108;82;28095;-77
2022/07/27 05:13:00;;;;;;;5.87;1.10;;;;;;;17.15;78.72;100561.87;1672808;83;26604;-77
2022/07/27 05:15:26;;;;;;;6.40;2.15;;;;;;;17.17;79.13;100560.56;1713553;83;25315;-77
2022/07/27 05:17:52;;;;;;;3.15;0.93;;;;;;;17.21;78.58;100560.94;1687272;84;25836;-76
2022/07/27 05:20:21;;;;;;;4.25;1.00;;;;;;;17.22;78.50;100555.29;1694204;83;25921;-76
2022/07/27 05:22:51;;;;;;;2.43;0.90;;;;;;;17.26;78.16;100552.41;1699436;82;28544;-77
2022/07/27 05:25:20;;;;;;;4.97;1.10;;;;;;;17.31;78.61;100557.13;1711293;83;25801;-77
2022/07/27 05:27:48;;;;;;;3.55;1.07;;;;;;;17.40;79.09;100563.88;1707025;80;25598;-76
2022/07/27 05:30:16;;;;;;;3.98;0.85;;;;;;;17.49;78.46;100561.14;1724500;81;26414;-77
2022/07/27 05:32:45;;;;;;;2.35;0.85;;;;;;;17.56;78.44;100552.39;1747303;80;26119;-77
2022/07/27 05:35:14;;;;;;;4.60;1.17;;;;;;;17.62;77.85;100558.25;1718729;81;26520;-78
2022/07/27 05:37:42;;;;;;;5.03;1.30;;;;;;;17.69;77.98;100554.36;1669061;83;25880;-78
2022/07/27 05:40:10;;;;;;;4.22;1.10;;;;;;;17.80;78.26;100554.59;1722741;82;25815;-77
2022/07/27 05:42:36;;;;;;;8.05;1.57;;;;;;;17.87;77.32;100556.15;1724883;81;25849;-77
2022/07/27 05:45:10;;;;;;;6.12;1.30;;;;;;;17.92;76.08;100556.25;1659658;84;25919;-77
2022/07/27 05:47:37;;;;;;;5.67;1.10;;;;;;;17.95;76.33;100547.66;1700733;83;27476;-77
2022/07/27 05:50:04;;;;;;;2.80;1.12;;;;;;;18.02;75.61;100549.73;1676466;83;26012;-78
2022/07/27 05:52:33;;;;;;;7.42;0.95;;;;;;;18.05;74.99;100547.08;1669094;84;25914;-77
2022/07/27 05:55:02;;;;;;;4.75;1.30;;;;;;;18.09;74.72;100546.34;1700975;82;25907;-77
2022/07/27 05:57:30;;;;;;;4.87;1.27;;;;;;;18.14;74.10;100542.92;1700457;82;25794;-76
2022/07/27 06:00:00;;;;;;;2.85;1.07;;;;;;;18.20;74.65;100543.33;1701510;82;27528;-76
2022/07/27 06:02:26;;;;;;;1.57;0.80;;;;;;;18.31;75.46;100549.27;1722737;81;26039;-74
2022/07/27 06:04:53;;;;;;;6.35;1.40;;;;;;;18.42;74.46;100548.43;1722684;81;25548;-74
2022/07/27 06:10:06;;;;;;;5.03;0.85;;;;;;;18.53;72.37;100546.78;1714692;81;25807;-75
2022/07/27 06:12:43;;;;;;;4.72;1.07;;;;;;;18.60;72.07;100544.25;1693324;83;26602;-76
2022/07/27 06:15:10;;;;;;;5.40;1.50;;;;;;;18.60;71.03;100546.95;1691844;83;25926;-76
2022/07/27 06:17:37;;;;;;;9.70;1.30;;;;;;;18.61;70.39;100549.95;1691832;83;25767;-76
2022/07/27 06:20:06;;;;;;;3.27;0.95;;;;;;;18.68;71.04;100548.45;1722505;81;26616;-76
2022/07/27 06:22:38;;;;;;;5.70;1.30;;;;;;;18.77;71.32;100549.20;1709510;81;25832;-76
2022/07/27 06:25:05;;;;;;;4.95;0.98;;;;;;;18.87;70.38;100552.64;1701558;83;27494;-75
2022/07/27 06:27:36;;;;;;;2.67;0.88;;;;;;;18.89;69.76;100555.93;1707285;81;25793;-75
2022/07/27 06:30:01;;;;;;;3.83;1.03;;;;;;;18.95;70.04;100560.38;1688828;82;25803;-74
2022/07/27 06:32:30;;;;;;;6.47;1.15;;;;;;;19.00;69.28;100553.18;1696811;82;25761;-75
2022/07/27 06:34:56;;;;;;;4.15;1.00;;;;;;;19.09;68.08;100562.59;1687962;83;25830;-75
2022/07/27 06:37:28;;;;;;;7.60;1.00;;;;;;;19.14;67.75;100563.19;1716971;81;27022;-75
2022/07/27 06:40:00;;;;;;;10.18;1.45;;;;;;;19.18;68.49;100571.17;1721325;81;26049;-75
2022/07/27 06:42:27;;;;;;;4.70;1.07;;;;;;;19.29;67.71;100565.39;1710014;81;26018;-75
2022/07/27 06:44:56;;;;;;;2.90;1.12;;;;;;;19.36;68.27;100570.14;1711137;81;26285;-75
2022/07/27 06:47:24;;;;;;;10.55;1.25;;;;;;;19.43;67.40;100573.02;1721607;81;26491;-75
2022/07/27 06:49:51;;;;;;;6.85;1.20;;;;;;;19.50;68.24;100573.69;1722137;82;27470;-75
2022/07/27 06:52:20;;;;;;;5.17;1.05;;;;;;;19.66;69.02;100574.74;1722179;81;25313;-74
2022/07/27 06:54:46;;;;;;;3.40;0.98;;;;;;;19.78;68.24;100573.59;1722701;81;26460;-74
2022/07/27 06:57:14;;;;;;;5.33;0.98;;;;;;;19.82;67.39;100573.94;1694805;82;25912;-75
2022/07/27 06:59:44;;;;;;;4.47;0.88;;;;;;;19.87;66.73;100569.39;1711552;81;25782;-75
2022/07/27 07:02:13;;;;;;;6.42;1.10;;;;;;;19.85;64.46;100560.66;1722396;81;27456;-77
2022/07/27 07:04:39;;;;;;;5.10;1.12;;;;;;;19.85;65.93;100557.11;1721176;82;25930;-76
2022/07/27 07:07:05;;;;;;;6.55;1.52;;;;;;;19.95;66.15;100562.73;1714856;81;26531;-75
2022/07/27 07:09:32;;;;;;;4.87;1.07;;;;;;;20.01;66.16;100563.09;1681830;81;25874;-75
2022/07/27 07:12:01;;;;;;;4.45;1.12;;;;;;;20.12;66.58;100558.63;1720112;81;25800;-76
2022/07/27 07:14:28;;;;;;;6.90;1.47;;;;;;;20.21;64.91;100555.80;1727133;81;27463;-75
2022/07/27 07:16:54;;;;;;;5.10;1.20;;;;;;;20.25;65.29;100563.18;1713781;81;25926;-76
2022/07/27 07:19:20;;;;;;;6.25;1.10;;;;;;;20.25;64.09;100560.46;1691619;83;25827;-75
2022/07/27 07:21:47;;;;;;;5.10;1.10;;;;;;;20.26;63.23;100560.77;1721301;81;25882;-75
2022/07/27 07:24:14;;;;;;;4.20;1.22;;;;;;;20.25;62.40;100565.10;1690850;82;25927;-74
2022/07/27 07:26:40;;;;;;;8.08;1.70;;;;;;;20.25;62.99;100563.18;1698868;82;28327;-75
2022/07/27 07:29:06;;;;;;;3.80;1.37;;;;;;;20.30;62.39;100563.27;1722888;81;25853;-74
2022/07/27 07:31:33;;;;;;;5.53;1.07;;;;;;;20.38;62.53;100566.91;1722174;81;25859;-76
2022/07/27 07:33:59;;;;;;;4.40;1.40;;;;;;;20.48;62.13;100568.42;1696967;83;26196;-75
2022/07/27 07:36:26;;;;;;;3.75;1.00;;;;;;;20.50;60.48;100563.55;1691272;83;25958;-76
2022/07/27 07:38:54;;;;;;;3.20;1.00;;;;;;;20.50;60.19;100562.19;1694596;83;27467;-76
2022/07/27 07:41:22;;;;;;;4.92;1.00;;;;;;;20.55;60.92;100556.79;1693059;82;25711;-78
2022/07/27 07:43:49;;;;;;;4.70;1.05;;;;;;;20.60;60.41;100560.12;1698987;82;25804;-77
2022/07/27 07:46:15;;;;;;;3.65;1.20;;;;;;;20.62;57.97;100569.68;1696805;82;25919;-75
2022/07/27 07:48:42;;;;;;;5.58;0.98;;;;;;;20.59;59.20;100581.06;1693151;82;25931;-76
2022/07/27 07:51:10;;;;;;;5.15;1.17;;;;;;;20.61;59.44;100577.58;1692320;82;27457;-76
2022/07/27 07:53:36;;;;;;;4.85;1.12;;;;;;;20.62;58.64;100576.48;1687859;82;25936;-75
2022/07/27 07:56:03;;;;;;;4.42;1.30;;;;;;;20.64;59.43;100579.78;1666723;83;25615;-75
2022/07/27 07:58:30;;;;;;;5.50;1.32;;;;;;;20.67;59.45;100583.89;1689719;83;25819;-75
2022/07/27 08:00:56;;;;;;;3.95;1.00;;;;;;;20.70;59.92;100588.28;1687631;83;25829;-74
2022/07/27 08:03:23;;;;;;;4.85;1.30;;;;;;;20.77;60.78;100593.54;1707033;83;27472;-77
2022/07/27 08:05:50;;;;;;;2.92;1.22;;;;;;;20.84;59.92;100590.63;1716256;82;26019;-76
2022/07/27 08:08:16;;;;;;;7.50;1.47;;;;;;;20.85;59.77;100583.56;1701088;84;26462;-76
2022/07/27 08:10:43;;;;;;;3.92;0.98;;;;;;;20.89;59.67;100596.98;1719488;82;26580;-75
2022/07/27 08:13:09;;;;;;;4.22;1.15;;;;;;;20.95;59.71;100601.41;1727973;82;25763;-76
2022/07/27 08:15:36;;;;;;;5.72;1.50;;;;;;;20.99;59.74;100595.72;1663380;83;27496;-77
2022/07/27 08:18:04;;;;;;;3.62;1.00;;;;;;;21.10;60.09;100601.61;1709025;83;25905;-75
2022/07/27 08:20:31;;;;;;;6.25;1.50;;;;;;;21.22;59.75;100601.45;1695985;83;26589;-75
2022/07/27 08:25:46;;;;;;;4.50;1.57;;;;;;;21.30;58.18;100601.81;1683421;82;26691;-76
2022/07/27 08:28:12;;;;;;;5.20;1.45;;;;;;;21.31;57.69;100606.20;1691613;83;27478;-76
2022/07/27 08:30:39;;;;;;;5.58;1.57;;;;;;;21.27;57.50;100607.79;1683495;82;25871;-75
2022/07/27 08:33:05;;;;;;;6.05;1.30;;;;;;;21.20;57.92;100604.97;1678804;83;25910;-75
2022/07/27 08:35:34;;;;;;;7.28;1.45;;;;;;;21.23;57.37;100605.30;1702053;83;25844;-76
2022/07/27 08:38:03;;;;;;;4.92;1.85;;;;;;;21.30;57.21;100605.89;1707355;79;25834;-77
2022/07/27 08:40:30;;;;;;;4.15;1.50;;;;;;;21.37;57.64;100613.87;1733340;80;28058;-76
2022/07/27 08:42:59;;;;;;;6.60;1.62;;;;;;;21.37;57.39;100615.23;1744060;80;25841;-77
2022/07/27 08:45:26;;;;;;;5.25;1.20;;;;;;;21.38;57.44;100610.88;1741325;82;26160;-76
2022/07/27 08:47:53;;;;;;;3.65;1.17;;;;;;;21.51;57.69;100617.28;1740920;80;25837;-76
2022/07/27 08:50:23;;;;;;;3.15;1.15;;;;;;;21.62;57.70;100620.92;1757081;80;26577;-74
2022/07/27 08:53:06;;;;;;;4.72;1.32;;;;;;;21.70;56.67;100611.47;1717835;81;28753;-76
2022/07/27 08:55:40;;;;;;;4.33;1.07;;;;;;;21.79;57.48;100612.08;1726730;81;25941;-75
2022/07/27 08:58:08;;;;;;;5.85;1.47;;;;;;;21.93;56.64;100607.05;1752936;80;25798;-75
2022/07/27 09:00:38;;;;;;;5.65;1.60;;;;;;;21.95;56.63;100613.90;1711111;81;27517;-76
2022/07/27 09:03:04;;;;;;;3.65;1.42;;;;;;;22.02;57.38;100612.31;1738120;81;25938;-77
2022/07/27 09:05:31;;;;;;;7.50;2.02;;;;;;;22.10;55.55;100615.91;1750692;80;28253;-76
2022/07/27 09:08:16;;;;;;;5.42;1.55;;;;;;;22.09;55.79;100615.66;1736055;80;25977;-76
2022/07/27 09:10:43;;;;;;;5.00;1.57;;;;;;;22.04;55.34;100617.80;1738164;80;25779;-76
2022/07/27 09:13:29;;;;;;;4.42;1.60;;;;;;;22.02;56.40;100614.51;1714525;82;26670;-76
2022/07/27 09:16:06;;;;;;;6.97;1.87;;;;;;;22.08;57.72;100616.72;1746678;80;25763;-75
2022/07/27 09:18:36;;;;;;;4.10;1.57;;;;;;;22.13;57.94;100617.56;1745855;80;27505;-75
2022/07/27 09:21:15;;;;;;;3.02;1.50;;;;;;;22.07;56.27;100613.70;1732777;80;25750;-76
2022/07/27 09:23:49;;;;;;;6.03;2.05;;;;;;;21.95;56.52;100620.72;1740284;80;25840;-76
2022/07/27 09:26:22;;;;;;;7.20;2.15;;;;;;;21.82;56.29;100615.70;1706889;82;25927;-76
2022/07/27 09:29:02;;;;;;;5.22;2.17;;;;;;;21.78;56.85;100612.35;1744494;80;26567;-76
2022/07/27 09:31:29;;;;;;;4.07;2.87;;;;;;;21.75;57.03;100616.98;1737509;80;28304;-77
2022/07/27 09:33:59;;;;;;;6.05;1.77;;;;;;;21.75;57.53;100617.78;1760672;80;25881;-75
2022/07/27 09:36:28;;;;;;;5.58;1.77;;;;;;;21.71;56.82;100615.29;1747171;80;25905;-76
2022/07/27 09:39:04;;;;;;;4.83;1.50;;;;;;;21.74;57.59;100614.78;1735022;80;26434;-75
2022/07/27 09:41:46;;;;;;;6.20;1.80;;;;;;;21.83;57.19;100615.99;1749400;80;26490;-76
2022/07/27 09:44:14;;;;;;;5.45;1.98;;;;;;;21.90;57.09;100613.84;1748598;80;27425;-76
2022/07/27 09:46:45;;;;;;;4.85;1.50;;;;;;;21.92;57.34;100613.61;1748736;80;26518;-76
2022/07/27 09:49:32;;;;;;;4.22;1.52;;;;;;;21.97;57.06;100614.45;1749097;80;25879;-75
2022/07/27 09:54:44;;;;;;;5.53;1.25;;;;;;;22.10;57.00;100620.01;1634042;86;25934;-76
2022/07/27 10:00:21;;;;;;;5.03;1.17;;;;;;;22.07;56.89;100615.06;1750865;80;25937;-76
2022/07/27 10:02:52;;;;;;;3.90;1.20;;;;;;;22.09;56.31;100622.47;1753551;80;25925;-75
2022/07/27 10:08:27;;;;;;;3.25;1.07;;;;;;;22.11;55.08;100618.94;1703922;81;25863;-75
2022/07/27 10:10:56;;;;;;;3.17;1.12;;;;;;;22.15;55.46;100624.15;1713139;82;27516;-75
2022/07/27 10:13:24;;;;;;;3.62;1.10;;;;;;;22.26;56.99;100623.14;1711392;82;25915;-75
2022/07/27 10:15:52;;;;;;;5.47;1.82;;;;;;;22.40;56.69;100618.85;1719424;81;25769;-75
2022/07/27 10:18:30;;;;;;;6.62;1.32;;;;;;;22.54;57.23;100611.82;1706887;83;25946;-76
2022/07/27 10:21:02;;;;;;;5.25;1.30;;;;;;;22.70;55.49;100605.40;1695338;83;26297;-75
2022/07/27 10:23:31;;;;;;;3.08;1.10;;;;;;;22.81;55.94;100604.90;1690558;83;27505;-77
2022/07/27 10:26:32;;;;;;;6.15;1.45;;;;;;;22.91;55.96;100607.66;1689121;83;25769;-76
2022/07/27 10:29:09;;;;;;;6.50;1.17;;;;;;;22.96;55.17;100602.23;1688899;83;25803;-75
2022/07/27 10:31:38;;;;;;;6.50;1.30;;;;;;;22.97;54.18;100606.59;1684081;84;26460;-76
2022/07/27 10:34:08;;;;;;;3.95;1.10;;;;;;;22.94;54.55;100601.14;1687653;83;25969;-76
2022/07/27 10:36:44;;;;;;;6.70;3.05;;;;;;;23.02;54.17;100598.42;1698345;83;28304;-76
2022/07/27 10:39:14;;;;;;;3.30;1.15;;;;;;;23.01;53.57;100609.89;1677933;83;25803;-75
2022/07/27 10:41:42;;;;;;;6.60;0.93;;;;;;;22.82;52.13;100613.36;1675834;84;25982;-76
2022/07/27 10:44:24;;;;;;;1.95;0.82;;;;;;;22.64;52.56;100609.20;1696167;83;26349;-76
2022/07/27 10:46:55;;;;;;;6.10;1.00;;;;;;;22.53;52.31;100616.19;1690999;83;26628;-76
2022/07/27 10:49:26;;;;;;;2.33;0.90;;;;;;;22.53;53.59;100611.56;1689821;83;27517;-76
2022/07/27 10:51:54;;;;;;;5.03;1.30;;;;;;;22.60;54.12;100603.17;1691321;83;25821;-76
2022/07/27 10:54:35;;;;;;;4.92;1.20;;;;;;;22.71;53.17;100610.33;1690301;82;26625;-76
2022/07/27 10:57:05;;;;;;;2.50;0.90;;;;;;;22.80;53.02;100606.80;1692472;83;25819;-75
2022/07/27 10:59:48;;;;;;;6.15;1.10;;;;;;;22.92;53.38;100607.95;1701833;83;25813;-76
2022/07/27 11:02:21;;;;;;;3.37;0.78;;;;;;;22.97;52.22;100600.59;1680981;83;27651;-76
2022/07/27 11:04:51;;;;;;;4.58;1.15;;;;;;;23.08;53.49;100600.08;1688026;83;25896;-75
2022/07/27 11:07:25;;;;;;;1.27;0.53;;;;;;;23.23;53.37;100594.66;1688813;82;25867;-76
2022/07/27 11:09:52;;;;;;;4.00;1.65;;;;;;;23.36;53.54;100598.80;1689834;83;26596;-76
2022/07/27 11:12:18;;;;;;;4.60;0.93;;;;;;;23.37;52.45;100600.46;1689012;83;26648;-75
2022/07/27 11:14:51;;;;;;;5.85;0.90;;;;;;;23.28;51.34;100593.30;1697160;83;27468;-76
2022/07/27 11:17:25;;;;;;;2.08;0.78;;;;;;;23.28;51.61;100596.04;1694349;82;25840;-76
2022/07/27 11:19:58;;;;;;;7.03;0.90;;;;;;;23.29;51.80;100587.30;1702900;83;26018;-76
2022/07/27 11:22:38;;;;;;;3.67;0.88;;;;;;;23.14;52.17;100587.27;1695013;83;25932;-75
2022/07/27 11:25:06;;;;;;;4.65;0.90;;;;;;;23.16;51.71;100589.98;1682253;83;25912;-76
2022/07/27 11:27:46;;;;;;;4.72;0.85;;;;;;;23.21;52.22;100585.08;1702470;80;28331;-75
2022/07/27 11:30:27;;;;;;;3.05;1.00;;;;;;;23.30;52.32;100583.46;1715012;81;26006;-76
2022/07/27 11:32:54;;;;;;;2.62;0.98;;;;;;;23.36;52.70;100585.14;1712583;80;27124;-76
2022/07/27 11:35:22;;;;;;;5.80;1.07;;;;;;;23.40;51.09;100588.42;1693577;82;26565;-76
2022/07/27 11:38:04;;;;;;;4.08;0.60;;;;;;;23.47;51.94;100589.00;1697534;81;25954;-74
2022/07/27 11:40:47;;;;;;;4.83;0.90;;;;;;;23.48;50.38;100593.36;1722104;82;27923;-76
2022/07/27 11:43:37;;;;;;;3.30;0.90;;;;;;;23.43;50.47;100587.90;1706111;82;25809;-76
2022/07/27 11:46:26;;;;;;;2.20;0.80;;;;;;;23.41;50.22;100588.72;1675361;80;26721;-75
2022/07/27 11:54:55;;;;;;;4.03;0.85;;;;;;;23.84;50.71;100595.58;1639314;84;28063;-74
2022/07/27 11:57:31;;;;;;;3.10;1.00;;;;;;;23.90;50.52;100595.02;1625044;87;44317;-75